Time;durP1;ratioP1;P1;durP2;ratioP2;P2;SDS_P1;SDS_P2;PMS_P1;PMS_P2;Temp;Humidity;BMP_temperature;BMP_pressure;BME280_temperature;BME280_humidity;BME280_pressure;Samples;Min_cycle;Max_cycle;Signal;HPM_P1;HPM_P2
2021/07/11 00:00:08;;;;;;;;;;;19.20;99.90;19.50;99753.00;;;;333167;29;91275;-87
2021/07/11 00:00:21;;;;;;;;;;;19.20;99.90;19.50;99754.00;;;;337663;28;95056;-87
2021/07/11 00:00:34;;;;;;;;;;;19.20;99.90;19.50;99751.00;;;;334931;28;91233;-87
2021/07/11 00:00:46;;;;;;;;;;;19.20;99.90;19.50;99748.00;;;;335149;29;94351;-86
2021/07/11 00:00:57;;;;;;;;;;;19.20;99.90;19.40;99751.00;;;;337514;28;92030;-87
2021/07/11 00:01:09;;;;;;;;;;;19.20;99.90;19.40;99748.00;;;;332607;29;96156;-86
2021/07/11 00:01:21;;;;;;;;;;;19.20;99.90;19.30;99753.00;;;;331012;29;92065;-87
2021/07/11 00:01:32;;;;;;;;;;;19.20;99.90;19.30;99750.00;;;;336747;28;94085;-86
2021/07/11 00:01:44;;;;;;;;;;;19.20;99.90;19.30;99753.00;;;;337645;28;91809;-86
2021/07/11 00:01:56;;;;;;;;;;;19.20;99.90;19.30;99758.00;;;;337701;28;95569;-86
2021/07/11 00:02:08;;;;;;;;;;;19.20;99.90;19.30;99753.00;;;;337551;28;91882;-87
2021/07/11 00:02:19;;;;;;;;;;;19.20;99.90;19.30;99755.00;;;;337790;28;93557;-87
2021/07/11 00:02:33;;;;;;;;;;;19.20;99.90;19.30;99755.00;;;;336239;28;91385;-87
2021/07/11 00:02:45;;;;;;;;;;;19.20;99.90;19.30;99758.00;;;;337683;28;93937;-86
2021/07/11 00:02:56;;;;;;;;;;;19.20;99.90;19.30;99755.00;;;;337018;28;91931;-86
2021/07/11 00:03:08;;;;;;;;;;;19.20;99.90;19.30;99759.00;;;;335888;28;95858;-87
2021/07/11 00:03:20;;;;;;;;;;;19.20;99.90;19.30;99758.00;;;;334988;29;92033;-87
2021/07/11 00:03:31;;;;;;;;;;;19.20;99.90;19.30;99751.00;;;;335828;28;93106;-86
2021/07/11 00:03:43;;;;;;;;;;;19.20;99.90;19.30;99763.00;;;;333570;29;91939;-86
2021/07/11 00:03:55;;;;;;;;;;;19.20;99.90;19.30;99753.00;;;;336375;28;93426;-86
2021/07/11 00:04:07;;;;;;;;;;;19.20;99.90;19.30;99757.00;;;;335943;28;92110;-86
2021/07/11 00:04:18;;;;;;;;;;;19.20;99.90;19.30;99753.00;;;;337850;28;92365;-87
2021/07/11 00:04:30;;;;;;;;;;;19.20;99.90;19.30;99752.00;;;;336209;28;92344;-86
2021/07/11 00:04:42;;;;;;;;;;;19.20;99.90;19.30;99758.00;;;;335099;29;94602;-86
2021/07/11 00:04:53;;;;;;;;;;;19.20;99.90;19.30;99752.00;;;;337299;28;92033;-87
2021/07/11 00:05:07;;;;;;;;;;;19.20;99.90;19.30;99763.00;;;;335139;29;95768;-86
2021/07/11 00:05:20;;;;;;;;;;;19.20;99.90;19.30;99750.00;;;;335050;29;92015;-86
2021/07/11 00:05:31;;;;;;;;;;;19.20;99.90;19.30;99754.00;;;;335125;29;92412;-86
2021/07/11 00:05:43;;;;;;;;;;;19.20;99.90;19.20;99747.00;;;;333548;29;92154;-86
2021/07/11 00:05:55;;;;;;;;;;;19.20;99.90;19.20;99747.00;;;;336161;28;95348;-86
2021/07/11 00:06:07;;;;;;;;;;;19.20;99.90;19.30;99751.00;;;;334525;29;92180;-86
2021/07/11 00:06:18;;;;;;;;;;;19.20;99.90;19.30;99749.00;;;;335074;28;93437;-87
2021/07/11 00:06:34;;;;;;;;;;;19.20;99.90;19.30;99754.00;;;;334774;29;91299;-86
2021/07/11 00:06:45;;;;;;;;;;;19.20;99.90;19.30;99746.00;;;;336405;28;96023;-86
2021/07/11 00:06:57;;;;;;;;;;;19.20;99.90;19.30;99749.00;;;;337213;28;92568;-87
2021/07/11 00:07:11;;;;;;;;;;;19.20;99.90;19.30;99745.00;;;;336467;28;93844;-86
2021/07/11 00:07:23;;;;;;;;;;;19.20;99.90;19.40;99750.00;;;;336295;28;92032;-86
2021/07/11 00:07:34;;;;;;;;;;;19.20;99.90;19.40;99751.00;;;;332621;29;93637;-86
2021/07/11 00:07:46;;;;;;;;;;;19.20;99.90;19.40;99749.00;;;;334900;29;92009;-86
2021/07/11 00:07:58;;;;;;;;;;;19.20;99.90;19.40;99740.00;;;;336537;28;93673;-86
2021/07/11 00:08:09;;;;;;;;;;;19.20;99.90;19.30;99746.00;;;;334907;29;91989;-87
2021/07/11 00:08:21;;;;;;;;;;;19.20;99.90;19.30;99750.00;;;;335206;29;93416;-86
2021/07/11 00:08:33;;;;;;;;;;;19.20;99.90;19.30;99748.00;;;;334934;29;91296;-87
2021/07/11 00:08:44;;;;;;;;;;;19.20;99.90;19.30;99746.00;;;;335125;29;94381;-86
2021/07/11 00:08:56;;;;;;;;;;;19.20;99.90;19.40;99745.00;;;;334717;28;91121;-86
2021/07/11 00:09:08;;;;;;;;;;;19.20;99.90;19.30;99746.00;;;;336500;28;94782;-86
2021/07/11 00:09:19;;;;;;;;;;;19.20;99.90;19.30;99744.00;;;;336228;28;91090;-86
2021/07/11 00:09:31;;;;;;;;;;;19.20;99.90;19.30;99746.00;;;;335592;28;93545;-87
2021/07/11 00:09:43;;;;;;;;;;;19.20;99.90;19.40;99744.00;;;;333359;29;92103;-87
2021/07/11 00:09:55;;;;;;;;;;;19.20;99.90;19.40;99749.00;;;;336418;28;93998;-86
2021/07/11 00:10:07;;;;;;;;;;;19.20;99.90;19.40;99751.00;;;;337449;28;92040;-87
2021/07/11 00:10:19;;;;;;;;;;;19.20;99.90;19.40;99749.00;;;;337741;28;94556;-87
2021/07/11 00:10:31;;;;;;;;;;;19.20;99.90;19.40;99724.00;;;;337676;28;91231;-87
2021/07/11 00:10:42;;;;;;;;;;;19.20;99.90;19.30;99743.00;;;;335251;29;92642;-86
2021/07/11 00:10:54;;;;;;;;;;;19.20;99.90;19.40;99742.00;;;;336231;28;92005;-87
2021/07/11 00:11:06;;;;;;;;;;;19.20;99.90;19.40;99747.00;;;;335080;29;94839;-87
2021/07/11 00:11:17;;;;;;;;;;;19.20;99.90;19.40;99742.00;;;;334866;29;91921;-87
2021/07/11 00:11:29;;;;;;;;;;;19.20;99.90;19.40;99744.00;;;;336483;28;93312;-86
2021/07/11 00:11:41;;;;;;;;;;;19.20;99.90;19.30;99747.00;;;;336258;28;91881;-87
2021/07/11 00:11:52;;;;;;;;;;;19.20;99.90;19.30;99741.00;;;;335262;29;92621;-86
2021/07/11 00:12:04;;;;;;;;;;;19.20;99.90;19.30;99746.00;;;;335197;28;92141;-86
2021/07/11 00:12:16;;;;;;;;;;;19.20;99.90;19.30;99750.00;;;;335339;28;94253;-86
2021/07/11 00:12:28;;;;;;;;;;;19.20;99.90;19.30;99748.00;;;;334870;29;91422;-86
2021/07/11 00:12:40;;;;;;;;;;;19.20;99.90;19.30;99748.00;;;;335120;29;94677;-87
2021/07/11 00:12:52;;;;;;;;;;;19.20;99.90;19.30;99748.00;;;;334746;29;92029;-86
2021/07/11 00:13:04;;;;;;;;;;;19.20;99.90;19.30;99745.00;;;;337216;28;92784;-87
2021/07/11 00:13:16;;;;;;;;;;;19.20;99.90;19.30;99734.00;;;;336166;28;92041;-86
2021/07/11 00:13:27;;;;;;;;;;;19.20;99.90;19.30;99736.00;;;;337669;28;95165;-86
2021/07/11 00:13:39;;;;;;;;;;;19.20;99.90;19.40;99742.00;;;;337421;28;91121;-86
2021/07/11 00:13:51;;;;;;;;;;;19.20;99.90;19.40;99745.00;;;;337651;28;96030;-86
2021/07/11 00:14:03;;;;;;;;;;;19.20;99.90;19.40;99747.00;;;;334858;29;91206;-87
2021/07/11 00:14:15;;;;;;;;;;;19.20;99.90;19.40;99744.00;;;;336490;28;93699;-86
2021/07/11 00:14:26;;;;;;;;;;;19.20;99.90;19.40;99741.00;;;;334833;29;91396;-86
2021/07/11 00:14:38;;;;;;;;;;;19.20;99.90;19.40;99741.00;;;;335274;29;92315;-86
2021/07/11 00:14:50;;;;;;;;;;;19.20;99.90;19.50;99738.00;;;;333495;29;92494;-86
2021/07/11 00:15:04;;;;;;;;;;;19.20;99.90;19.50;99739.00;;;;333688;29;93526;-87
2021/07/11 00:15:17;;;;;;;;;;;19.30;99.90;19.50;99740.00;;;;335363;28;92067;-87
2021/07/11 00:15:31;;;;;;;;;;;19.30;99.90;19.50;99743.00;;;;336386;28;92572;-87
2021/07/11 00:15:43;;;;;;;;;;;19.30;99.90;19.60;99734.00;;;;335040;29;91794;-86
2021/07/11 00:15:55;;;;;;;;;;;19.30;99.90;19.50;99738.00;;;;333952;29;92066;-86
2021/07/11 00:16:07;;;;;;;;;;;19.30;99.90;19.50;99739.00;;;;334812;29;92085;-87
2021/07/11 00:16:18;;;;;;;;;;;19.20;99.90;19.40;99739.00;;;;336360;28;96418;-87
2021/07/11 00:16:32;;;;;;;;;;;19.30;99.90;19.40;99739.00;;;;337246;28;91251;-86
2021/07/11 00:16:44;;;;;;;;;;;19.30;99.90;19.40;99741.00;;;;336396;28;93972;-87
2021/07/11 00:16:55;;;;;;;;;;;19.30;99.90;19.40;99742.00;;;;334889;29;92015;-86
2021/07/11 00:17:07;;;;;;;;;;;19.30;99.90;19.40;99739.00;;;;335236;29;93503;-86
2021/07/11 00:17:19;;;;;;;;;;;19.30;99.90;19.50;99739.00;;;;334845;29;92054;-87
2021/07/11 00:17:31;;;;;;;;;;;19.30;99.90;19.50;99736.00;;;;335132;29;92113;-86
2021/07/11 00:17:43;;;;;;;;;;;19.30;99.90;19.50;99737.00;;;;336186;28;91938;-86
2021/07/11 00:17:55;;;;;;;;;;;19.30;99.90;19.50;99729.00;;;;335102;29;93941;-87
2021/07/11 00:18:07;;;;;;;;;;;19.30;99.90;19.60;99740.00;;;;336513;28;92082;-87
2021/07/11 00:18:19;;;;;;;;;;;19.30;99.90;19.50;99743.00;;;;338848;28;96342;-87
2021/07/11 00:18:31;;;;;;;;;;;19.30;99.90;19.40;99731.00;;;;338837;28;91411;-87
2021/07/11 00:18:42;;;;;;;;;;;19.30;99.90;19.30;99739.00;;;;337472;28;94038;-87
2021/07/11 00:18:54;;;;;;;;;;;19.30;99.90;19.30;99736.00;;;;334876;29;92033;-87
2021/07/11 00:19:06;;;;;;;;;;;19.30;99.90;19.40;99741.00;;;;336430;28;93773;-86
2021/07/11 00:19:18;;;;;;;;;;;19.30;99.90;19.40;99735.00;;;;336174;28;92143;-86
2021/07/11 00:19:29;;;;;;;;;;;19.30;99.90;19.50;99742.00;;;;336337;28;95353;-87
2021/07/11 00:19:41;;;;;;;;;;;19.30;99.90;19.50;99744.00;;;;336241;28;91849;-87
2021/07/11 00:19:55;;;;;;;;;;;19.30;99.90;19.50;99735.00;;;;336518;28;93153;-87
2021/07/11 00:20:07;;;;;;;;;;;19.30;99.90;19.50;99733.00;;;;336218;28;92010;-86
2021/07/11 00:20:20;;;;;;;;;;;19.30;99.90;19.60;99745.00;;;;336382;28;96447;-86
2021/07/11 00:20:31;;;;;;;;;;;19.30;99.90;19.60;99748.00;;;;336157;28;91477;-86
2021/07/11 00:20:43;;;;;;;;;;;19.30;99.90;19.50;99743.00;;;;336523;28;92960;-86
2021/07/11 00:20:55;;;;;;;;;;;19.30;99.90;19.50;99744.00;;;;335948;28;92217;-86
2021/07/11 00:21:06;;;;;;;;;;;19.30;99.90;19.50;99737.00;;;;335411;28;92332;-87
2021/07/11 00:21:18;;;;;;;;;;;19.30;99.90;19.50;99746.00;;;;336006;28;91118;-87
2021/07/11 00:21:30;;;;;;;;;;;19.30;99.90;19.50;99741.00;;;;332938;29;95546;-86
2021/07/11 00:21:41;;;;;;;;;;;19.30;99.90;19.50;99748.00;;;;334771;29;91942;-87
2021/07/11 00:21:53;;;;;;;;;;;19.30;99.90;19.50;99739.00;;;;337784;28;93348;-87
2021/07/11 00:22:05;;;;;;;;;;;19.30;99.90;19.50;99736.00;;;;335727;28;92111;-86
2021/07/11 00:22:16;;;;;;;;;;;19.30;99.90;19.50;99751.00;;;;336489;28;93442;-87
2021/07/11 00:22:28;;;;;;;;;;;19.30;99.90;19.50;99747.00;;;;334777;29;91277;-87
2021/07/11 00:22:40;;;;;;;;;;;19.30;99.90;19.50;99744.00;;;;337822;28;92914;-87
2021/07/11 00:22:52;;;;;;;;;;;19.30;99.90;19.60;99747.00;;;;334935;29;91953;-87
2021/07/11 00:23:03;;;;;;;;;;;19.30;99.90;19.50;99746.00;;;;336472;28;93442;-87
2021/07/11 00:23:15;;;;;;;;;;;19.40;99.90;19.50;99739.00;;;;336258;28;91990;-87
2021/07/11 00:23:27;;;;;;;;;;;19.30;99.90;19.50;99735.00;;;;336412;28;94688;-87
2021/07/11 00:23:39;;;;;;;;;;;19.30;99.90;19.60;99750.00;;;;334792;29;91175;-87
2021/07/11 00:23:50;;;;;;;;;;;19.30;99.90;19.60;99738.00;;;;337763;28;93450;-86
2021/07/11 00:24:02;;;;;;;;;;;19.30;99.90;19.60;99740.00;;;;336607;28;91365;-86
2021/07/11 00:24:14;;;;;;;;;;;19.30;99.90;19.60;99745.00;;;;336712;28;93215;-87
2021/07/11 00:24:26;;;;;;;;;;;19.30;99.90;19.60;99742.00;;;;334948;29;91335;-86
2021/07/11 00:24:39;;;;;;;;;;;19.30;99.90;19.60;99743.00;;;;336527;28;92833;-87
2021/07/11 00:24:51;;;;;;;;;;;19.30;99.90;19.50;99745.00;;;;337391;28;92104;-87
2021/07/11 00:25:04;;;;;;;;;;;19.40;99.90;19.40;99735.00;;;;335695;28;94778;-86
2021/07/11 00:25:16;;;;;;;;;;;19.30;99.90;19.30;99746.00;;;;333694;29;91899;-86
2021/07/11 00:25:28;;;;;;;;;;;19.30;99.90;19.30;99740.00;;;;335135;29;93194;-86
2021/07/11 00:25:39;;;;;;;;;;;19.30;99.90;19.40;99749.00;;;;334926;29;92037;-87
2021/07/11 00:25:51;;;;;;;;;;;19.30;99.90;19.40;99737.00;;;;336450;28;94499;-86
2021/07/11 00:26:03;;;;;;;;;;;19.30;99.90;19.40;99740.00;;;;331020;29;92068;-87
2021/07/11 00:26:14;;;;;;;;;;;19.30;99.90;19.50;99736.00;;;;335077;29;94785;-86
2021/07/11 00:26:26;;;;;;;;;;;19.30;99.90;19.50;99747.00;;;;337522;28;91141;-86
2021/07/11 00:26:38;;;;;;;;;;;19.30;99.90;19.50;99739.00;;;;338993;28;93417;-86
2021/07/11 00:26:50;;;;;;;;;;;19.30;99.90;19.50;99744.00;;;;336069;28;91988;-87
2021/07/11 00:27:02;;;;;;;;;;;19.30;99.90;19.40;99746.00;;;;336355;28;93850;-86
2021/07/11 00:27:13;;;;;;;;;;;19.30;99.90;19.40;99741.00;;;;334369;29;91891;-86
2021/07/11 00:27:25;;;;;;;;;;;19.30;99.90;19.40;99741.00;;;;335026;28;95674;-87
2021/07/11 00:27:37;;;;;;;;;;;19.30;99.90;19.50;99745.00;;;;334796;29;91292;-86
2021/07/11 00:27:53;;;;;;;;;;;19.30;99.90;19.40;99745.00;;;;333715;29;94909;-85
2021/07/11 00:28:05;;;;;;;;;;;19.30;99.90;19.40;99740.00;;;;334164;29;92049;-86
2021/07/11 00:28:16;;;;;;;;;;;19.30;99.90;19.40;99744.00;;;;332542;29;94881;-86
2021/07/11 00:28:28;;;;;;;;;;;19.30;99.90;19.40;99743.00;;;;336176;28;90489;-86
2021/07/11 00:28:40;;;;;;;;;;;19.30;99.90;19.40;99739.00;;;;336508;28;91721;-87
2021/07/11 00:28:51;;;;;;;;;;;19.30;99.90;19.40;99746.00;;;;333641;29;92073;-87
2021/07/11 00:29:03;;;;;;;;;;;19.30;99.90;19.40;99739.00;;;;333858;29;94199;-87
2021/07/11 00:29:15;;;;;;;;;;;19.30;99.90;19.40;99741.00;;;;334951;29;92023;-86
2021/07/11 00:29:27;;;;;;;;;;;19.30;99.90;19.40;99744.00;;;;335040;29;93410;-86
2021/07/11 00:29:38;;;;;;;;;;;19.30;99.90;19.40;99744.00;;;;335003;29;91994;-86
2021/07/11 00:29:50;;;;;;;;;;;19.30;99.90;19.50;99734.00;;;;335209;29;93560;-87
2021/07/11 00:30:03;;;;;;;;;;;19.30;99.90;19.50;99734.00;;;;333158;29;92266;-87
2021/07/11 00:30:15;;;;;;;;;;;19.30;99.90;19.50;99737.00;;;;333762;29;93907;-86
2021/07/11 00:30:27;;;;;;;;;;;19.30;99.90;19.50;99739.00;;;;337223;28;91246;-86
2021/07/11 00:30:39;;;;;;;;;;;19.30;99.90;19.40;99736.00;;;;336240;28;92432;-86
2021/07/11 00:30:50;;;;;;;;;;;19.30;99.90;19.40;99743.00;;;;337353;28;92168;-87
2021/07/11 00:31:02;;;;;;;;;;;19.30;99.90;19.40;99741.00;;;;334772;29;95043;-86
2021/07/11 00:31:14;;;;;;;;;;;19.30;99.90;19.40;99731.00;;;;336097;28;91029;-86
2021/07/11 00:31:25;;;;;;;;;;;19.30;99.90;19.40;99734.00;;;;336421;28;93321;-86
2021/07/11 00:31:37;;;;;;;;;;;19.30;99.90;19.40;99734.00;;;;334890;29;92003;-87
2021/07/11 00:31:49;;;;;;;;;;;19.30;99.90;19.40;99741.00;;;;334975;29;94001;-88
2021/07/11 00:32:01;;;;;;;;;;;19.20;99.90;19.40;99737.00;;;;336068;28;92050;-87
2021/07/11 00:32:13;;;;;;;;;;;19.30;99.90;19.40;99728.00;;;;335220;29;92245;-87
2021/07/11 00:32:25;;;;;;;;;;;19.20;99.90;19.30;99733.00;;;;336298;28;91238;-87
2021/07/11 00:32:37;;;;;;;;;;;19.20;99.90;19.30;99732.00;;;;337740;28;92747;-87
2021/07/11 00:32:49;;;;;;;;;;;19.20;99.90;19.30;99735.00;;;;336168;28;92125;-87
2021/07/11 00:33:01;;;;;;;;;;;19.20;99.90;19.30;99732.00;;;;335960;28;95956;-86
2021/07/11 00:33:13;;;;;;;;;;;19.20;99.90;19.40;99738.00;;;;336607;28;91853;-86
2021/07/11 00:33:25;;;;;;;;;;;19.20;99.90;19.30;99735.00;;;;337738;28;94395;-86
2021/07/11 00:33:37;;;;;;;;;;;19.20;99.90;19.30;99733.00;;;;336090;28;92096;-86
2021/07/11 00:33:49;;;;;;;;;;;19.20;99.90;19.30;99737.00;;;;336163;28;95272;-86
2021/07/11 00:34:01;;;;;;;;;;;19.20;99.90;19.30;99732.00;;;;335697;28;90995;-87
2021/07/11 00:34:13;;;;;;;;;;;19.20;99.90;19.30;99729.00;;;;334860;29;93958;-86
2021/07/11 00:34:25;;;;;;;;;;;19.20;99.90;19.40;99735.00;;;;337564;28;91597;-87
2021/07/11 00:34:37;;;;;;;;;;;19.20;99.90;19.40;99729.00;;;;337782;28;91221;-87
2021/07/11 00:34:49;;;;;;;;;;;19.20;99.90;19.40;99738.00;;;;336140;28;91932;-86
2021/07/11 00:35:00;;;;;;;;;;;19.20;99.90;19.30;99730.00;;;;337648;28;96421;-86
2021/07/11 00:35:12;;;;;;;;;;;19.20;99.90;19.30;99736.00;;;;336192;28;92045;-87
2021/07/11 00:35:24;;;;;;;;;;;19.20;99.90;19.30;99734.00;;;;335206;29;92738;-87
2021/07/11 00:35:35;;;;;;;;;;;19.20;99.90;19.30;99734.00;;;;331966;29;92090;-86
2021/07/11 00:35:47;;;;;;;;;;;19.20;99.90;19.20;99732.00;;;;333929;29;93411;-87
2021/07/11 00:35:59;;;;;;;;;;;19.20;99.90;19.20;99733.00;;;;333049;29;92020;-86
2021/07/11 00:36:11;;;;;;;;;;;19.20;99.90;19.30;99732.00;;;;334834;29;93781;-86
2021/07/11 00:36:22;;;;;;;;;;;19.20;99.90;19.30;99738.00;;;;336297;28;90263;-87
2021/07/11 00:36:35;;;;;;;;;;;19.20;99.90;19.30;99729.00;;;;335115;29;92089;-86
2021/07/11 00:36:46;;;;;;;;;;;19.20;99.90;19.30;99742.00;;;;334424;29;93028;-87
2021/07/11 00:36:58;;;;;;;;;;;19.20;99.90;19.30;99728.00;;;;333793;29;93413;-86
2021/07/11 00:37:10;;;;;;;;;;;19.20;99.90;19.30;99734.00;;;;337495;28;91905;-86
2021/07/11 00:37:21;;;;;;;;;;;19.10;99.90;19.40;99735.00;;;;337765;28;93500;-87
2021/07/11 00:37:38;;;;;;;;;;;19.20;99.90;19.40;99735.00;;;;334812;29;92090;-86
2021/07/11 00:37:49;;;;;;;;;;;19.20;99.90;19.40;99735.00;;;;332649;29;91813;-86
2021/07/11 00:38:01;;;;;;;;;;;19.20;99.90;19.40;99729.00;;;;334897;29;91948;-87
2021/07/11 00:38:13;;;;;;;;;;;19.20;99.90;19.40;99728.00;;;;335091;29;93820;-87
2021/07/11 00:38:24;;;;;;;;;;;19.20;99.90;19.40;99737.00;;;;334999;29;90371;-87
2021/07/11 00:38:36;;;;;;;;;;;19.20;99.90;19.40;99733.00;;;;335199;29;91878;-86
2021/07/11 00:38:48;;;;;;;;;;;19.20;99.90;19.40;99729.00;;;;337414;28;92294;-86
2021/07/11 00:38:59;;;;;;;;;;;19.20;99.90;19.30;99732.00;;;;336637;28;95034;-86
2021/07/11 00:39:11;;;;;;;;;;;19.20;99.90;19.30;99736.00;;;;336013;28;92070;-87
2021/07/11 00:39:23;;;;;;;;;;;19.20;99.90;19.30;99727.00;;;;337316;28;92984;-86
2021/07/11 00:39:34;;;;;;;;;;;19.20;99.90;19.30;99728.00;;;;337401;28;91980;-87
2021/07/11 00:39:46;;;;;;;;;;;19.20;99.90;19.30;99735.00;;;;335043;29;96762;-86
2021/07/11 00:39:58;;;;;;;;;;;19.20;99.90;19.30;99727.00;;;;334876;28;92036;-87
2021/07/11 00:40:11;;;;;;;;;;;19.10;99.90;19.30;99735.00;;;;335068;29;93505;-86
2021/07/11 00:40:22;;;;;;;;;;;19.10;99.90;19.30;99732.00;;;;336276;28;91237;-86
2021/07/11 00:40:34;;;;;;;;;;;19.20;99.90;19.30;99726.00;;;;335203;29;92761;-86
2021/07/11 00:40:46;;;;;;;;;;;19.20;99.90;19.30;99723.00;;;;334855;29;91929;-86
2021/07/11 00:40:59;;;;;;;;;;;19.10;99.90;19.30;99727.00;;;;333867;29;92315;-87
2021/07/11 00:41:10;;;;;;;;;;;19.20;99.90;19.30;99720.00;;;;335005;29;91952;-87
2021/07/11 00:41:22;;;;;;;;;;;19.10;99.90;19.40;99724.00;;;;333873;29;93635;-87
2021/07/11 00:41:38;;;;;;;;;;;19.10;99.90;19.40;99729.00;;;;334928;29;91951;-87
2021/07/11 00:41:50;;;;;;;;;;;19.20;99.90;19.50;99737.00;;;;336400;28;93684;-87
2021/07/11 00:42:02;;;;;;;;;;;19.20;99.90;19.40;99726.00;;;;335933;28;92247;-87
2021/07/11 00:42:18;;;;;;;;;;;19.20;99.90;19.40;99726.00;;;;336100;28;93579;-87
2021/07/11 00:42:29;;;;;;;;;;;19.10;99.90;19.40;99724.00;;;;338369;28;91029;-86
2021/07/11 00:42:41;;;;;;;;;;;19.20;99.90;19.40;99725.00;;;;336424;28;94562;-86
2021/07/11 00:42:53;;;;;;;;;;;19.20;99.90;19.30;99721.00;;;;337422;28;92063;-87
2021/07/11 00:43:05;;;;;;;;;;;19.20;99.90;19.30;99723.00;;;;337084;28;97276;-86
2021/07/11 00:43:16;;;;;;;;;;;19.20;99.90;19.30;99730.00;;;;337417;28;92094;-86
2021/07/11 00:43:28;;;;;;;;;;;19.20;99.90;19.30;99718.00;;;;337696;28;93588;-86
2021/07/11 00:43:40;;;;;;;;;;;19.10;99.90;19.30;99718.00;;;;336124;28;92116;-87
2021/07/11 00:43:51;;;;;;;;;;;19.10;99.90;19.30;99726.00;;;;337745;28;93243;-86
2021/07/11 00:44:03;;;;;;;;;;;19.20;99.90;19.30;99723.00;;;;337415;28;92066;-86
2021/07/11 00:44:15;;;;;;;;;;;19.10;99.90;19.30;99712.00;;;;336404;28;93491;-87
2021/07/11 00:44:27;;;;;;;;;;;19.10;99.90;19.30;99728.00;;;;336175;28;91234;-86
2021/07/11 00:44:38;;;;;;;;;;;19.10;99.90;19.30;99720.00;;;;335228;29;92439;-86
2021/07/11 00:44:50;;;;;;;;;;;19.10;99.90;19.20;99727.00;;;;336014;28;92158;-87
2021/07/11 00:45:03;;;;;;;;;;;19.10;99.90;19.20;99728.00;;;;335158;28;92204;-87
2021/07/11 00:45:15;;;;;;;;;;;19.10;99.90;19.10;99718.00;;;;336043;28;92150;-87
2021/07/11 00:45:27;;;;;;;;;;;19.10;99.90;19.10;99723.00;;;;333669;29;94047;-86
2021/07/11 00:45:39;;;;;;;;;;;19.10;99.90;19.10;99723.00;;;;334845;29;91269;-88
2021/07/11 00:45:50;;;;;;;;;;;19.10;99.90;19.20;99724.00;;;;333826;29;95786;-86
2021/07/11 00:46:02;;;;;;;;;;;19.10;99.90;19.20;99729.00;;;;336007;28;91022;-87
2021/07/11 00:46:14;;;;;;;;;;;19.10;99.90;19.20;99722.00;;;;338948;28;93376;-87
2021/07/11 00:46:26;;;;;;;;;;;19.10;99.90;19.20;99729.00;;;;337548;28;91197;-87
2021/07/11 00:46:41;;;;;;;;;;;19.10;99.90;19.30;99721.00;;;;337736;28;94110;-86
2021/07/11 00:46:52;;;;;;;;;;;19.10;99.90;19.20;99731.00;;;;333616;29;92059;-86
2021/07/11 00:47:04;;;;;;;;;;;19.10;99.90;19.30;99727.00;;;;335132;29;94921;-87
2021/07/11 00:47:16;;;;;;;;;;;19.10;99.90;19.30;99727.00;;;;337373;28;92143;-87
2021/07/11 00:47:28;;;;;;;;;;;19.10;99.90;19.20;99725.00;;;;335075;29;93764;-86
2021/07/11 00:47:40;;;;;;;;;;;19.10;99.90;19.20;99729.00;;;;336099;28;92122;-87
2021/07/11 00:47:52;;;;;;;;;;;19.10;99.90;19.20;99724.00;;;;335013;29;95335;-87
2021/07/11 00:48:04;;;;;;;;;;;19.10;99.90;19.20;99728.00;;;;337534;28;92171;-87
2021/07/11 00:48:18;;;;;;;;;;;19.00;99.90;19.30;99725.00;;;;338170;28;92781;-86
2021/07/11 00:48:29;;;;;;;;;;;19.10;99.90;19.30;99720.00;;;;333588;29;90500;-86
2021/07/11 00:48:41;;;;;;;;;;;19.10;99.90;19.40;99731.00;;;;333943;29;92856;-87
2021/07/11 00:48:53;;;;;;;;;;;19.10;99.90;19.40;99729.00;;;;334556;29;92034;-87
2021/07/11 00:49:06;;;;;;;;;;;19.10;99.90;19.40;99724.00;;;;336309;28;96652;-87
2021/07/11 00:49:18;;;;;;;;;;;19.10;99.90;19.40;99721.00;;;;334827;29;92206;-86
2021/07/11 00:49:29;;;;;;;;;;;19.10;99.90;19.40;99721.00;;;;335055;29;93561;-87
2021/07/11 00:49:42;;;;;;;;;;;19.10;99.90;19.30;99728.00;;;;334944;29;91855;-87
2021/07/11 00:49:54;;;;;;;;;;;19.10;99.90;19.30;99727.00;;;;336448;28;93494;-87
2021/07/11 00:50:07;;;;;;;;;;;19.10;99.90;19.30;99721.00;;;;336096;28;92144;-87
2021/07/11 00:50:19;;;;;;;;;;;19.10;99.90;19.20;99721.00;;;;335172;29;92012;-86
2021/07/11 00:50:31;;;;;;;;;;;19.10;99.90;19.30;99720.00;;;;336162;28;91228;-87
2021/07/11 00:50:42;;;;;;;;;;;19.10;99.90;19.30;99715.00;;;;335150;29;91561;-87
2021/07/11 00:50:55;;;;;;;;;;;19.10;99.90;19.30;99721.00;;;;333436;29;91274;-86
2021/07/11 00:51:07;;;;;;;;;;;19.10;99.90;19.30;99723.00;;;;334117;29;96795;-87
2021/07/11 00:51:22;;;;;;;;;;;19.10;99.90;19.20;99728.00;;;;333491;29;92026;-86
2021/07/11 00:51:35;;;;;;;;;;;19.10;99.90;19.20;99724.00;;;;336321;28;93314;-87
2021/07/11 00:51:46;;;;;;;;;;;19.10;99.90;19.30;99719.00;;;;335005;29;91765;-87
2021/07/11 00:51:58;;;;;;;;;;;19.10;99.90;19.30;99716.00;;;;335021;29;93195;-87
2021/07/11 00:52:10;;;;;;;;;;;19.10;99.90;19.30;99719.00;;;;336177;28;92175;-87
2021/07/11 00:52:22;;;;;;;;;;;19.10;99.90;19.20;99720.00;;;;337639;28;96510;-87
2021/07/11 00:52:33;;;;;;;;;;;19.10;99.90;19.20;99719.00;;;;334861;29;91262;-87
2021/07/11 00:52:45;;;;;;;;;;;19.10;99.90;19.20;99726.00;;;;333676;29;96190;-87
2021/07/11 00:52:57;;;;;;;;;;;19.10;99.90;19.20;99723.00;;;;336199;28;92039;-87
2021/07/11 00:53:10;;;;;;;;;;;19.00;99.90;19.20;99723.00;;;;337778;28;93569;-87
2021/07/11 00:53:21;;;;;;;;;;;19.00;99.90;19.10;99727.00;;;;336242;28;91976;-87
2021/07/11 00:53:33;;;;;;;;;;;19.10;99.90;19.20;99720.00;;;;336417;28;93153;-87
2021/07/11 00:53:51;;;;;;;;;;;19.00;99.90;19.20;99720.00;;;;336296;28;91833;-87
2021/07/11 00:54:03;;;;;;;;;;;19.10;99.90;19.20;99722.00;;;;336839;28;93099;-87
2021/07/11 00:54:15;;;;;;;;;;;19.10;99.90;19.20;99720.00;;;;337521;28;91201;-87
2021/07/11 00:54:27;;;;;;;;;;;19.10;99.90;19.20;99720.00;;;;336443;28;92400;-87
2021/07/11 00:54:38;;;;;;;;;;;19.00;99.90;19.20;99716.00;;;;335943;28;91122;-86
2021/07/11 00:54:50;;;;;;;;;;;19.10;99.90;19.20;99724.00;;;;336332;28;94633;-87
2021/07/11 00:55:03;;;;;;;;;;;19.00;99.90;19.20;99720.00;;;;337435;28;92164;-87
2021/07/11 00:55:15;;;;;;;;;;;19.00;99.90;19.20;99713.00;;;;335038;29;94958;-87
2021/07/11 00:55:27;;;;;;;;;;;19.10;99.90;19.30;99719.00;;;;337552;28;91904;-87
2021/07/11 00:55:39;;;;;;;;;;;19.00;99.90;19.30;99716.00;;;;336289;28;95104;-87
2021/07/11 00:55:51;;;;;;;;;;;19.00;99.90;19.30;99716.00;;;;336168;28;91912;-87
2021/07/11 00:56:03;;;;;;;;;;;19.00;99.90;19.30;99720.00;;;;336349;28;93762;-87
2021/07/11 00:56:15;;;;;;;;;;;19.00;99.90;19.20;99712.00;;;;336090;28;92140;-87
2021/07/11 00:56:26;;;;;;;;;;;19.10;99.90;19.20;99726.00;;;;336427;28;93543;-87
2021/07/11 00:56:40;;;;;;;;;;;19.10;99.90;19.20;99715.00;;;;336309;28;91251;-87
2021/07/11 00:56:52;;;;;;;;;;;19.00;99.90;19.20;99716.00;;;;336351;28;94825;-87
2021/07/11 00:57:04;;;;;;;;;;;19.00;99.90;19.20;99718.00;;;;336031;28;92167;-86
2021/07/11 00:57:16;;;;;;;;;;;19.00;99.90;19.20;99716.00;;;;332714;29;92523;-87
2021/07/11 00:57:27;;;;;;;;;;;19.00;99.90;19.20;99719.00;;;;337412;28;91992;-87
2021/07/11 00:57:39;;;;;;;;;;;19.00;99.90;19.10;99716.00;;;;337707;28;93548;-87
2021/07/11 00:57:51;;;;;;;;;;;19.00;99.90;19.10;99717.00;;;;333549;29;91180;-87
2021/07/11 00:58:03;;;;;;;;;;;19.00;99.90;19.20;99716.00;;;;334906;29;93303;-86
2021/07/11 00:58:15;;;;;;;;;;;19.00;99.90;19.10;99718.00;;;;337488;28;91899;-86
2021/07/11 00:58:26;;;;;;;;;;;19.00;99.90;19.00;99714.00;;;;337735;28;93556;-87
2021/07/11 00:58:38;;;;;;;;;;;19.00;99.90;19.00;99718.00;;;;336278;28;91232;-86
2021/07/11 00:58:50;;;;;;;;;;;19.00;99.90;19.10;99713.00;;;;337784;28;93193;-86
2021/07/11 00:59:01;;;;;;;;;;;19.00;99.90;19.20;99720.00;;;;333549;29;91998;-87
2021/07/11 00:59:13;;;;;;;;;;;19.00;99.90;19.30;99715.00;;;;330095;29;93083;-86
2021/07/11 00:59:25;;;;;;;;;;;19.00;99.90;19.30;99716.00;;;;333515;29;92072;-87